Time;durP1;ratioP1;P1;durP2;ratioP2;P2;SDS_P1;SDS_P2;PMS_P1;PMS_P2;Temp;Humidity;BMP_temperature;BMP_pressure;BME280_temperature;BME280_humidity;BME280_pressure;Samples;Min_cycle;Max_cycle;Signal;HPM_P1;HPM_P2
2023/09/22 00:02:13;;;;;;;4.18;2.63;;;;;;;-144.73;100.00;54428.22;5035476;28;20029;-78
2023/09/22 00:04:39;;;;;;;5.00;2.47;;;;;;;-144.73;100.00;54428.22;5043110;28;20036;-78
2023/09/22 00:07:06;;;;;;;8.20;2.85;;;;;;;-144.73;100.00;54432.31;5041312;28;20017;-78
2023/09/22 00:09:32;;;;;;;11.20;3.00;;;;;;;-144.73;100.00;54504.16;5032140;28;20064;-77
2023/09/22 00:11:59;;;;;;;7.03;3.17;;;;;;;-144.73;100.00;54448.75;5030493;28;20025;-78
2023/09/22 00:14:26;;;;;;;9.10;2.97;;;;;;;-144.73;100.00;54448.75;5043430;28;20052;-78
2023/09/22 00:16:52;;;;;;;5.85;3.20;;;;;;;-144.73;100.00;54452.84;5048743;28;20086;-78
2023/09/22 00:19:17;;;;;;;7.60;3.58;;;;;;;-144.73;100.00;54473.38;5039544;28;20092;-77
2023/09/22 00:21:43;;;;;;;7.43;3.50;;;;;;;-144.73;100.00;54442.59;5039239;28;20492;-78
2023/09/22 00:24:08;;;;;;;6.38;3.17;;;;;;;-144.73;100.00;54452.84;5044055;28;20025;-77
2023/09/22 00:26:34;;;;;;;6.13;3.55;;;;;;;-144.73;100.00;54428.22;5039071;28;20444;-78
2023/09/22 00:28:59;;;;;;;7.50;3.90;;;;;;;-144.73;100.00;54461.06;5037027;28;20073;-78
2023/09/22 00:31:25;;;;;;;4.72;3.45;;;;;;;-144.73;100.00;54424.13;5038225;28;20395;-78
2023/09/22 00:33:52;;;;;;;7.57;3.83;;;;;;;-144.73;100.00;54444.66;5046382;28;20032;-78
2023/09/22 00:36:18;;;;;;;8.25;4.90;;;;;;;-144.73;100.00;54436.44;5035325;28;20018;-78
2023/09/22 00:38:44;;;;;;;7.85;5.35;;;;;;;-144.73;100.00;54444.66;5034258;28;20028;-78
2023/09/22 00:41:10;;;;;;;8.60;5.13;;;;;;;-144.73;100.00;54448.75;5039142;28;20028;-78
2023/09/22 00:43:35;;;;;;;11.30;6.10;;;;;;;-144.73;100.00;54477.47;5048791;28;20036;-78
2023/09/22 00:46:00;;;;;;;14.23;6.50;;;;;;;-144.73;100.00;54465.16;5033459;28;20029;-78
2023/09/22 00:48:28;;;;;;;10.77;5.78;;;;;;;-144.73;100.00;54481.59;5034253;28;20037;-78
2023/09/22 00:50:55;;;;;;;9.13;6.18;;;;;;;-144.73;100.00;54465.16;5032984;28;20030;-78
2023/09/22 00:53:23;;;;;;;10.70;6.90;;;;;;;-144.73;100.00;54440.53;5035331;28;20025;-78
2023/09/22 00:55:51;;;;;;;11.35;6.88;;;;;;;-144.73;100.00;54463.13;5048732;28;20025;-78
2023/09/22 00:58:17;;;;;;;10.00;8.02;;;;;;;-144.73;100.00;54477.47;5035167;28;20483;-78
2023/09/22 01:00:49;;;;;;;10.80;8.70;;;;;;;-144.73;100.00;54489.81;5037570;28;20034;-78
2023/09/22 01:03:16;;;;;;;11.95;8.10;;;;;;;-144.73;100.00;54485.69;5037226;28;20023;-78
2023/09/22 01:05:41;;;;;;;15.40;8.80;;;;;;;-144.73;100.00;54436.44;5041431;28;20041;-79
2023/09/22 01:08:07;;;;;;;18.50;10.73;;;;;;;-144.73;100.00;54461.06;5036437;28;20033;-79
2023/09/22 01:10:36;;;;;;;17.83;13.05;;;;;;;-144.73;100.00;54428.22;5034263;28;20033;-78
2023/09/22 01:13:04;;;;;;;16.80;11.20;;;;;;;-144.73;100.00;54456.97;5034378;28;20033;-78
2023/09/22 01:15:29;;;;;;;21.52;11.50;;;;;;;-144.73;100.00;54444.66;5029539;28;20040;-78
2023/09/22 01:17:54;;;;;;;13.75;10.35;;;;;;;-144.73;100.00;54452.84;5037425;28;20025;-79
2023/09/22 01:20:20;;;;;;;13.63;10.77;;;;;;;-144.73;100.00;54428.22;5036549;28;20030;-80
2023/09/22 01:22:46;;;;;;;13.75;10.30;;;;;;;-144.73;100.00;54465.16;5044257;28;20017;-79
2023/09/22 01:25:11;;;;;;;17.02;10.63;;;;;;;-144.73;100.00;54448.75;5041851;28;20087;-79
2023/09/22 01:27:37;;;;;;;14.40;10.63;;;;;;;-144.73;100.00;54469.28;5040039;28;20056;-79
2023/09/22 01:30:05;;;;;;;15.82;12.30;;;;;;;-144.73;100.00;54473.38;5038284;28;20040;-78
2023/09/22 01:32:30;;;;;;;13.65;11.48;;;;;;;-144.73;100.00;54465.16;5041707;28;20036;-78
2023/09/22 01:34:58;;;;;;;16.17;11.25;;;;;;;-144.73;100.00;54456.97;5040727;28;20037;-78
2023/09/22 01:37:28;;;;;;;20.25;11.45;;;;;;;-144.73;100.00;54500.06;5039782;28;20100;-78
2023/09/22 01:39:57;;;;;;;17.83;12.90;;;;;;;-144.73;100.00;54461.06;5044529;28;20042;-82
2023/09/22 01:42:24;;;;;;;14.15;10.80;;;;;;;-144.73;100.00;54434.38;5038688;28;20028;-78
2023/09/22 01:44:49;;;;;;;14.57;11.38;;;;;;;-144.73;100.00;54448.75;5040596;28;20083;-78
2023/09/22 01:47:15;;;;;;;12.80;10.07;;;;;;;-144.73;100.00;54436.44;5042110;28;20496;-77
2023/09/22 01:49:40;;;;;;;14.88;7.60;;;;;;;-144.73;100.00;54448.75;5041270;28;20496;-77
2023/09/22 01:52:05;;;;;;;8.35;6.32;;;;;;;-144.73;100.00;54481.59;5038650;28;20029;-78
2023/09/22 01:54:31;;;;;;;12.48;7.07;;;;;;;-144.73;100.00;54477.47;5040784;28;20040;-77
2023/09/22 01:56:56;;;;;;;13.60;7.43;;;;;;;-144.73;100.00;54465.16;5036941;28;20057;-78
2023/09/22 01:59:22;;;;;;;10.43;6.45;;;;;;;-144.73;100.00;54467.22;5036467;28;20045;-78
2023/09/22 02:01:48;;;;;;;9.93;5.57;;;;;;;-144.73;100.00;54424.13;5038537;28;20032;-76
2023/09/22 02:04:13;;;;;;;10.73;6.55;;;;;;;-144.73;100.00;54469.28;5038624;28;20033;-77
2023/09/22 02:06:39;;;;;;;7.35;5.43;;;;;;;-144.73;100.00;54436.44;5038393;28;20027;-76
2023/09/22 02:09:05;;;;;;;6.30;4.53;;;;;;;-144.73;100.00;54415.91;5044387;28;20037;-76
2023/09/22 02:11:31;;;;;;;10.68;5.50;;;;;;;-144.73;100.00;54424.13;5034976;28;20026;-77
2023/09/22 02:13:57;;;;;;;5.80;3.53;;;;;;;-144.73;100.00;54456.97;5039484;28;20462;-77
2023/09/22 02:16:22;;;;;;;8.05;3.85;;;;;;;-144.73;100.00;54452.84;5039779;28;20026;-77
2023/09/22 02:18:48;;;;;;;5.53;3.33;;;;;;;-144.73;100.00;54426.16;5036402;28;20092;-77
2023/09/22 02:21:14;;;;;;;9.18;3.80;;;;;;;-144.73;100.00;54465.16;5038474;28;20124;-77
2023/09/22 02:23:39;;;;;;;12.00;3.38;;;;;;;-144.73;100.00;54479.53;5043330;28;20043;-77
2023/09/22 02:26:08;;;;;;;6.38;3.38;;;;;;;-144.73;100.00;54463.13;5042500;28;20021;-76
2023/09/22 02:28:33;;;;;;;7.05;3.10;;;;;;;-144.73;100.00;54465.16;5043041;28;20029;-77
2023/09/22 02:30:59;;;;;;;7.05;3.00;;;;;;;-144.73;100.00;54428.22;5040744;28;20077;-77
2023/09/22 02:33:25;;;;;;;3.80;2.78;;;;;;;-144.73;100.00;54489.81;5036962;28;20026;-76
2023/09/22 02:35:51;;;;;;;5.95;2.40;;;;;;;-144.73;100.00;54518.53;5034128;28;20033;-77
2023/09/22 02:38:16;;;;;;;3.72;2.38;;;;;;;-144.73;100.00;54465.16;5041073;28;20019;-77
2023/09/22 02:40:44;;;;;;;8.10;2.30;;;;;;;-144.73;100.00;54479.53;5027614;28;20069;-77
2023/09/22 02:43:09;;;;;;;4.57;2.50;;;;;;;-144.73;100.00;54473.38;5041700;28;20009;-77
2023/09/22 02:45:40;;;;;;;8.20;2.38;;;;;;;-144.73;100.00;54473.38;5036742;28;20136;-77
2023/09/22 02:48:06;;;;;;;3.58;2.38;;;;;;;-144.73;100.00;54452.84;5040991;28;20021;-77
2023/09/22 02:50:33;;;;;;;3.25;2.22;;;;;;;-144.73;100.00;54456.97;5041820;28;20106;-77
2023/09/22 02:52:58;;;;;;;9.13;2.20;;;;;;;-144.73;100.00;54473.38;5034014;28;20132;-77
2023/09/22 02:55:23;;;;;;;5.40;2.53;;;;;;;-144.73;100.00;54481.59;5036370;28;20057;-77
2023/09/22 02:57:50;;;;;;;5.32;2.17;;;;;;;-144.73;100.00;54489.81;5037724;28;20028;-77
2023/09/22 03:00:18;;;;;;;4.32;2.10;;;;;;;-144.73;100.00;54440.53;5031383;28;20064;-77
2023/09/22 03:02:43;;;;;;;5.03;2.17;;;;;;;-144.73;100.00;54452.84;5044248;28;20056;-77
2023/09/22 03:05:10;;;;;;;2.83;1.90;;;;;;;-144.73;100.00;54483.66;5038989;28;20114;-77
2023/09/22 03:07:35;;;;;;;3.58;2.08;;;;;;;-144.73;100.00;54493.91;5037880;28;20025;-78
2023/09/22 03:10:01;;;;;;;5.47;2.05;;;;;;;-144.73;100.00;54481.59;5033804;28;20117;-78
2023/09/22 03:12:26;;;;;;;3.88;1.85;;;;;;;-144.73;100.00;54481.59;5037543;28;20100;-78
2023/09/22 03:14:52;;;;;;;2.95;1.80;;;;;;;-144.73;100.00;54424.13;5034318;28;20030;-78
2023/09/22 03:17:18;;;;;;;2.50;1.67;;;;;;;-144.73;100.00;54498.00;5042261;28;20040;-78
2023/09/22 03:19:44;;;;;;;6.70;2.42;;;;;;;-144.73;100.00;54448.75;5039842;28;20052;-77
2023/09/22 03:22:09;;;;;;;3.05;1.83;;;;;;;-144.73;100.00;54465.16;5038154;28;20037;-77
2023/09/22 03:24:35;;;;;;;4.07;2.10;;;;;;;-144.73;100.00;54473.38;5041022;28;20029;-78
2023/09/22 03:27:01;;;;;;;8.88;2.40;;;;;;;-144.73;100.00;54452.84;5034517;28;20025;-78
2023/09/22 03:29:27;;;;;;;5.57;1.95;;;;;;;-144.73;100.00;54465.16;5045396;28;20021;-78
2023/09/22 03:31:52;;;;;;;2.67;2.30;;;;;;;-144.73;100.00;54489.81;5040488;28;20036;-78
2023/09/22 03:34:18;;;;;;;4.53;2.60;;;;;;;-144.73;100.00;54456.97;5027011;28;20061;-78
2023/09/22 03:36:44;;;;;;;4.18;2.70;;;;;;;-144.73;100.00;54500.06;5033508;28;20033;-78
2023/09/22 03:39:12;;;;;;;3.78;2.90;;;;;;;-144.73;100.00;54465.16;5026507;28;20042;-78
2023/09/22 03:41:39;;;;;;;4.13;2.65;;;;;;;-144.73;100.00;54483.66;5041544;28;20020;-78
2023/09/22 03:44:04;;;;;;;4.10;2.67;;;;;;;-144.73;100.00;54448.75;5028562;28;20060;-78
2023/09/22 03:46:30;;;;;;;4.43;2.33;;;;;;;-144.73;100.00;54477.47;5033105;28;20057;-77
2023/09/22 03:48:55;;;;;;;2.53;2.30;;;;;;;-144.73;100.00;54461.06;5028848;28;20116;-78
2023/09/22 03:51:21;;;;;;;3.90;2.70;;;;;;;-144.73;100.00;54452.84;5036737;28;20033;-77
2023/09/22 03:53:46;;;;;;;3.50;2.97;;;;;;;-144.73;100.00;54465.16;5041200;28;20017;-78
2023/09/22 03:56:12;;;;;;;6.70;3.40;;;;;;;-144.73;100.00;54518.53;5034699;28;20028;-77
2023/09/22 03:58:37;;;;;;;6.28;3.17;;;;;;;-144.73;100.00;54432.31;5037007;28;20027;-78
2023/09/22 04:01:09;;;;;;;4.28;3.33;;;;;;;-144.73;100.00;54502.13;5040053;28;20013;-78
2023/09/22 04:03:36;;;;;;;8.27;3.80;;;;;;;-144.73;100.00;54452.84;5038939;28;20017;-78
2023/09/22 04:06:02;;;;;;;5.45;4.20;;;;;;;-144.73;100.00;54456.97;5034332;28;20500;-78
2023/09/22 04:08:27;;;;;;;5.13;3.90;;;;;;;-144.73;100.00;54465.16;5037869;28;20018;-78
2023/09/22 04:10:52;;;;;;;7.05;5.18;;;;;;;-144.73;100.00;54452.84;5036646;28;20037;-78
2023/09/22 04:13:18;;;;;;;5.22;4.43;;;;;;;-144.73;100.00;54471.31;5027499;28;20034;-78
2023/09/22 04:15:45;;;;;;;10.55;6.55;;;;;;;-144.73;100.00;54493.91;5040670;28;20195;-78
2023/09/22 04:18:11;;;;;;;9.07;5.50;;;;;;;-144.73;100.00;54473.38;5037737;28;20017;-78
2023/09/22 04:20:37;;;;;;;7.78;5.80;;;;;;;-144.73;100.00;54485.69;5029955;28;20117;-78
2023/09/22 04:23:04;;;;;;;10.07;7.30;;;;;;;-144.73;100.00;54444.66;5042956;28;20032;-78
2023/09/22 04:25:33;;;;;;;15.40;8.73;;;;;;;-144.73;100.00;54485.69;5029367;28;20033;-78
2023/09/22 04:28:11;;;;;;;9.82;8.55;;;;;;;-144.73;100.00;54469.28;5040296;28;20028;-78
2023/09/22 04:30:37;;;;;;;9.45;8.30;;;;;;;-144.73;100.00;54516.47;5029886;28;20036;-78
2023/09/22 04:33:04;;;;;;;11.23;9.13;;;;;;;-144.73;100.00;54432.31;5034930;28;20108;-78
2023/09/22 04:35:32;;;;;;;15.60;9.82;;;;;;;-144.73;100.00;54491.84;5039858;28;20037;-78
2023/09/22 04:38:02;;;;;;;14.73;10.80;;;;;;;-144.73;100.00;54498.00;5036554;28;20047;-78
2023/09/22 04:40:34;;;;;;;13.68;11.65;;;;;;;-144.73;100.00;54483.66;5029873;28;20030;-78
2023/09/22 04:43:00;;;;;;;16.38;11.20;;;;;;;-144.73;100.00;54485.69;5025685;28;20041;-78
2023/09/22 04:45:25;;;;;;;15.35;12.20;;;;;;;-144.73;100.00;54506.22;5032635;28;20060;-78
2023/09/22 04:47:53;;;;;;;14.93;12.30;;;;;;;-144.73;100.00;54510.31;5038375;28;20021;-78
2023/09/22 04:50:19;;;;;;;13.60;11.43;;;;;;;-144.73;100.00;54465.16;5037769;28;20037;-78
2023/09/22 04:52:49;;;;;;;17.00;12.52;;;;;;;-144.73;100.00;54500.06;5037439;28;20040;-78
2023/09/22 04:55:17;;;;;;;17.58;13.55;;;;;;;-144.73;100.00;54463.13;5030228;28;20170;-78
2023/09/22 04:57:43;;;;;;;19.05;13.13;;;;;;;-144.73;100.00;54495.97;5036911;28;20017;-78
2023/09/22 05:00:16;;;;;;;16.10;11.50;;;;;;;-144.73;100.00;54452.84;5035638;28;20669;-78
2023/09/22 05:02:45;;;;;;;18.50;12.77;;;;;;;-144.73;100.00;54461.06;5042008;28;20025;-78
2023/09/22 05:05:11;;;;;;;18.67;13.13;;;;;;;-144.73;100.00;54506.22;5038298;28;20404;-78
2023/09/22 05:07:37;;;;;;;17.30;13.40;;;;;;;-144.73;100.00;54456.97;5032790;28;20026;-77
2023/09/22 05:10:04;;;;;;;23.90;14.20;;;;;;;-144.73;100.00;54481.59;5039288;28;20036;-78
2023/09/22 05:12:30;;;;;;;20.90;13.07;;;;;;;-144.73;100.00;54502.13;5040576;28;20022;-78
2023/09/22 05:14:56;;;;;;;19.85;13.75;;;;;;;-144.73;100.00;54481.59;5043665;28;20029;-78
2023/09/22 05:17:22;;;;;;;18.05;13.25;;;;;;;-144.73;100.00;54514.44;5040395;28;20017;-78
2023/09/22 05:19:47;;;;;;;19.45;14.27;;;;;;;-144.73;100.00;54510.31;5038096;28;20040;-78
2023/09/22 05:22:13;;;;;;;25.90;13.77;;;;;;;-144.73;100.00;54477.47;5034036;28;20033;-78
2023/09/22 05:24:39;;;;;;;21.00;14.20;;;;;;;-144.73;100.00;54473.38;5038954;28;20463;-77
2023/09/22 05:27:04;;;;;;;20.35;14.15;;;;;;;-144.73;100.00;54473.38;5028902;28;20436;-78
2023/09/22 05:29:30;;;;;;;22.30;14.80;;;;;;;-144.73;100.00;54461.06;5030198;28;20049;-78
2023/09/22 05:31:55;;;;;;;22.27;14.00;;;;;;;-144.73;100.00;54514.44;5030793;28;20024;-78
2023/09/22 05:34:20;;;;;;;21.85;14.85;;;;;;;-144.73;100.00;54469.28;5032305;28;20064;-78
2023/09/22 05:36:46;;;;;;;22.63;13.93;;;;;;;-144.73;100.00;54473.38;5025376;28;20167;-78
2023/09/22 05:39:12;;;;;;;21.92;13.70;;;;;;;-144.73;100.00;54539.06;5037337;28;20111;-78
2023/09/22 05:41:38;;;;;;;21.20;13.65;;;;;;;-144.73;100.00;54473.38;5040859;28;20018;-78
2023/09/22 05:44:04;;;;;;;21.98;15.02;;;;;;;-144.73;100.00;54514.44;5043115;28;20026;-77
2023/09/22 05:46:31;;;;;;;23.25;14.95;;;;;;;-144.73;100.00;54473.38;5040258;28;20072;-78
2023/09/22 05:48:57;;;;;;;22.52;13.63;;;;;;;-144.73;100.00;54481.59;5038178;28;20048;-78
2023/09/22 05:51:23;;;;;;;22.98;14.80;;;;;;;-144.73;100.00;54465.16;5044853;28;20029;-77
2023/09/22 05:53:51;;;;;;;18.65;14.15;;;;;;;-144.73;100.00;54498.00;5037300;28;20215;-77
2023/09/22 05:56:16;;;;;;;22.92;15.15;;;;;;;-144.73;100.00;54493.91;5040281;28;20009;-77
2023/09/22 05:58:42;;;;;;;22.92;14.70;;;;;;;-144.73;100.00;54475.44;5031733;28;20496;-77
2023/09/22 06:01:13;;;;;;;20.27;14.52;;;;;;;-144.73;100.00;54467.22;5030379;28;20030;-77
2023/09/22 06:03:40;;;;;;;19.05;13.60;;;;;;;-144.73;100.00;54461.06;5045199;28;20021;-77
2023/09/22 06:06:08;;;;;;;20.55;13.65;;;;;;;-144.73;100.00;54424.13;5035621;28;20484;-77
2023/09/22 06:08:33;;;;;;;17.48;13.52;;;;;;;-144.73;100.00;54481.59;5032933;28;20068;-77
2023/09/22 06:11:01;;;;;;;17.50;14.13;;;;;;;-144.73;100.00;54481.59;5039215;28;20037;-78
2023/09/22 06:13:27;;;;;;;19.35;12.93;;;;;;;-144.73;100.00;54481.59;5033186;28;20049;-77
2023/09/22 06:15:52;;;;;;;19.00;14.85;;;;;;;-144.73;100.00;54465.16;5040695;28;20030;-77
2023/09/22 06:18:20;;;;;;;20.60;13.85;;;;;;;-144.73;100.00;54481.59;5037895;28;20013;-77
2023/09/22 06:20:46;;;;;;;28.17;13.73;;;;;;;-144.73;100.00;54469.28;5036225;28;20172;-77
2023/09/22 06:23:11;;;;;;;18.73;13.85;;;;;;;-144.73;100.00;54489.81;5038505;28;20079;-77
2023/09/22 06:25:37;;;;;;;21.27;14.90;;;;;;;-144.73;100.00;54485.69;5044762;28;20033;-77
2023/09/22 06:28:05;;;;;;;20.33;12.20;;;;;;;-144.73;100.00;54432.31;5032168;28;20091;-77
2023/09/22 06:30:34;;;;;;;17.38;11.90;;;;;;;-144.73;100.00;54493.91;5039637;28;20037;-77
2023/09/22 06:33:01;;;;;;;24.45;13.10;;;;;;;-144.73;100.00;54498.00;5040414;28;20025;-77
2023/09/22 06:35:26;;;;;;;21.70;13.02;;;;;;;-144.73;100.00;54461.06;5043347;28;20044;-76
2023/09/22 06:37:51;;;;;;;18.77;12.35;;;;;;;-144.73;100.00;54495.97;5051966;28;20100;-77
2023/09/22 06:40:17;;;;;;;18.30;12.57;;;;;;;-144.73;100.00;54473.38;5042021;28;20033;-77
2023/09/22 06:42:45;;;;;;;15.40;11.63;;;;;;;-144.73;100.00;54473.38;5036615;28;20056;-76
2023/09/22 06:45:15;;;;;;;16.00;12.00;;;;;;;-144.73;100.00;54485.69;5043621;28;20120;-77
2023/09/22 06:47:41;;;;;;;20.90;12.73;;;;;;;-144.73;100.00;54498.00;5037780;28;20048;-77
2023/09/22 06:50:09;;;;;;;17.55;11.38;;;;;;;-144.73;100.00;54498.00;5032725;28;20053;-77
2023/09/22 06:52:39;;;;;;;16.52;11.27;;;;;;;-144.73;100.00;54481.59;5032247;28;20037;-77
2023/09/22 06:55:08;;;;;;;15.43;10.20;;;;;;;-144.73;100.00;54448.75;5031385;28;20099;-77
2023/09/22 06:57:36;;;;;;;14.68;10.93;;;;;;;-144.73;100.00;54448.75;5046360;28;20028;-76
2023/09/22 07:00:22;;;;;;;13.75;10.45;;;;;;;-144.73;100.00;54506.22;5012697;28;20033;-76
2023/09/22 07:02:48;;;;;;;17.55;10.25;;;;;;;-144.73;100.00;54489.81;5024719;28;20067;-77
2023/09/22 07:05:16;;;;;;;17.55;10.73;;;;;;;-144.73;100.00;54502.13;5025051;28;20037;-76
2023/09/22 07:07:44;;;;;;;19.50;10.50;;;;;;;-144.73;100.00;54514.44;5047812;28;20029;-76
2023/09/22 07:10:10;;;;;;;14.98;11.30;;;;;;;-144.73;100.00;54469.28;5031202;28;20037;-77
2023/09/22 07:12:36;;;;;;;15.75;9.18;;;;;;;-144.73;100.00;54481.59;5039348;28;20020;-77
2023/09/22 07:15:03;;;;;;;19.70;9.98;;;;;;;-144.73;100.00;54502.13;5039166;28;20041;-77
2023/09/22 07:17:28;;;;;;;13.15;9.10;;;;;;;-144.73;100.00;54456.97;5044161;28;20021;-77
2023/09/22 07:19:53;;;;;;;19.73;8.32;;;;;;;-144.73;100.00;54510.31;5049322;28;20116;-77
2023/09/22 07:22:19;;;;;;;11.75;8.93;;;;;;;-144.73;100.00;54510.31;5039260;28;20025;-77
2023/09/22 07:24:45;;;;;;;11.15;8.77;;;;;;;-144.73;100.00;54473.38;5029869;28;20084;-76
2023/09/22 07:27:10;;;;;;;19.27;8.48;;;;;;;-144.73;100.00;54481.59;5039450;28;20079;-76
2023/09/22 07:29:36;;;;;;;13.43;7.45;;;;;;;-144.73;100.00;54498.00;5034050;28;20033;-76
2023/09/22 07:32:01;;;;;;;16.55;10.18;;;;;;;-144.73;100.00;54465.16;5031071;28;20131;-76
2023/09/22 07:34:28;;;;;;;11.00;7.95;;;;;;;-144.73;100.00;54469.28;5030580;28;20056;-76
2023/09/22 07:36:53;;;;;;;13.02;7.80;;;;;;;-144.73;100.00;54481.59;5031229;28;20045;-76
2023/09/22 07:39:19;;;;;;;12.68;8.40;;;;;;;-144.73;100.00;54518.53;5039900;28;20056;-77
2023/09/22 07:41:45;;;;;;;10.95;7.57;;;;;;;-144.73;100.00;54506.22;5043062;28;20032;-76
2023/09/22 07:44:10;;;;;;;13.27;8.15;;;;;;;-144.73;100.00;54502.13;5048900;28;20067;-77
2023/09/22 07:46:36;;;;;;;11.50;8.25;;;;;;;-144.73;100.00;54469.28;5030436;28;20104;-76
2023/09/22 07:49:01;;;;;;;13.38;7.93;;;;;;;-144.73;100.00;54495.97;5030141;28;20045;-76
2023/09/22 07:51:27;;;;;;;9.55;7.18;;;;;;;-144.73;100.00;54473.38;5030239;28;20050;-76
2023/09/22 07:53:52;;;;;;;10.52;7.53;;;;;;;-144.73;100.00;54448.75;5031741;28;20021;-77
2023/09/22 07:56:18;;;;;;;12.80;8.65;;;;;;;-144.73;100.00;54498.00;5031119;28;20022;-76
2023/09/22 07:58:44;;;;;;;11.55;7.45;;;;;;;-144.73;100.00;54493.91;5034959;28;20022;-76
2023/09/22 08:01:15;;;;;;;16.73;7.45;;;;;;;-144.73;100.00;54448.75;5031366;28;20013;-76
2023/09/22 08:03:43;;;;;;;12.05;7.43;;;;;;;-144.73;100.00;54506.22;5027132;28;20039;-76
2023/09/22 08:06:10;;;;;;;11.82;7.05;;;;;;;-144.73;100.00;54473.38;5036114;28;20096;-76
2023/09/22 08:08:36;;;;;;;9.57;6.72;;;;;;;-144.73;100.00;54504.16;5036130;28;20039;-76
2023/09/22 08:11:01;;;;;;;12.45;7.80;;;;;;;-144.73;100.00;54489.81;5024928;28;20032;-73
2023/09/22 08:13:27;;;;;;;9.65;6.80;;;;;;;-144.73;100.00;54479.53;5021164;28;20047;-73
2023/09/22 08:15:53;;;;;;;10.52;6.93;;;;;;;-144.73;100.00;54436.44;5021835;28;20030;-73
2023/09/22 08:18:18;;;;;;;10.82;6.70;;;;;;;-144.73;100.00;54446.69;5021217;28;20021;-74
2023/09/22 08:20:43;;;;;;;10.88;6.93;;;;;;;-144.73;100.00;54469.28;5022310;28;20080;-73
2023/09/22 08:23:09;;;;;;;10.85;6.72;;;;;;;-144.73;100.00;54432.31;5022025;28;20045;-74
2023/09/22 08:25:43;;;;;;;10.57;6.43;;;;;;;-144.73;100.00;54469.28;5021639;28;20029;-73
2023/09/22 08:28:12;;;;;;;10.80;6.70;;;;;;;-144.73;100.00;54479.53;5022716;28;20068;-74
2023/09/22 08:30:39;;;;;;;6.63;5.30;;;;;;;-144.73;100.00;54485.69;5023672;28;20568;-74
2023/09/22 08:33:05;;;;;;;12.85;6.75;;;;;;;-144.73;100.00;54456.97;5029968;28;20049;-74
2023/09/22 08:35:31;;;;;;;7.90;5.43;;;;;;;-144.73;100.00;54432.31;5028609;28;20068;-74
2023/09/22 08:37:57;;;;;;;7.28;5.45;;;;;;;-144.73;100.00;54481.59;5025333;28;20020;-73
2023/09/22 08:40:22;;;;;;;10.60;5.68;;;;;;;-144.73;100.00;54477.47;5025752;28;20030;-74
2023/09/22 08:42:52;;;;;;;8.85;5.55;;;;;;;-144.73;100.00;54473.38;5025573;28;20326;-74
2023/09/22 08:45:18;;;;;;;8.27;4.95;;;;;;;-144.73;100.00;54448.75;5026317;28;20084;-73
2023/09/22 08:47:46;;;;;;;12.07;5.72;;;;;;;-144.73;100.00;54452.84;5024832;28;20113;-73
2023/09/22 08:50:16;;;;;;;8.65;6.00;;;;;;;-144.73;100.00;54481.59;5045493;28;20029;-73
2023/09/22 08:52:51;;;;;;;16.70;6.47;;;;;;;-144.73;100.00;54444.66;5026979;28;20032;-74
2023/09/22 08:55:17;;;;;;;8.45;5.00;;;;;;;-144.73;100.00;54475.44;5026384;28;20030;-73
2023/09/22 08:57:45;;;;;;;8.27;5.13;;;;;;;-144.73;100.00;54471.31;5027498;28;20017;-74
2023/09/22 09:00:18;;;;;;;5.90;3.97;;;;;;;-144.73;100.00;54465.16;5049783;28;20045;-73
2023/09/22 09:02:45;;;;;;;5.85;4.60;;;;;;;-144.73;100.00;54461.06;5030527;28;20096;-73
2023/09/22 09:05:19;;;;;;;7.05;4.97;;;;;;;-144.73;100.00;54456.97;5022171;28;20022;-73
2023/09/22 09:07:46;;;;;;;9.85;4.55;;;;;;;-144.73;100.00;54461.06;5037094;28;20040;-73
2023/09/22 09:10:25;;;;;;;7.90;4.60;;;;;;;-144.73;100.00;54448.75;5032291;28;20071;-73
2023/09/22 09:12:50;;;;;;;9.90;4.38;;;;;;;-144.73;100.00;54500.06;5037981;28;20029;-73
2023/09/22 09:15:15;;;;;;;12.85;4.63;;;;;;;-144.73;100.00;54493.91;5038605;28;20209;-73
2023/09/22 09:17:41;;;;;;;10.55;3.83;;;;;;;-144.73;100.00;54477.47;5035435;28;20021;-73
2023/09/22 09:20:07;;;;;;;12.77;4.82;;;;;;;-144.73;100.00;54473.38;5035078;28;20032;-73
2023/09/22 09:22:37;;;;;;;7.15;4.43;;;;;;;-144.73;100.00;54465.16;5042473;28;20040;-73
2023/09/22 09:25:09;;;;;;;9.15;4.35;;;;;;;-144.73;100.00;54452.84;5043062;28;20031;-73
2023/09/22 09:27:34;;;;;;;8.95;3.67;;;;;;;-144.73;100.00;54473.38;5036477;28;20025;-72
2023/09/22 09:30:06;;;;;;;13.30;3.70;;;;;;;-144.73;100.00;54469.28;5047423;28;20035;-72
2023/09/22 09:32:31;;;;;;;;;;;;;;;-144.73;100.00;54477.47;5042277;28;20021;-73
2023/09/22 09:34:57;;;;;;;8.23;3.80;;;;;;;-144.73;100.00;54479.53;5038764;28;19917;-73
2023/09/22 09:37:23;;;;;;;4.65;3.17;;;;;;;-144.73;100.00;54452.84;5041214;28;20124;-72
2023/09/22 09:39:52;;;;;;;4.97;3.60;;;;;;;-144.73;100.00;54481.59;5038403;28;20488;-73
2023/09/22 09:42:20;;;;;;;9.60;3.00;;;;;;;-144.73;100.00;54477.47;5041262;28;20080;-74
2023/09/22 09:44:56;;;;;;;5.63;3.20;;;;;;;-144.73;100.00;54477.47;5040812;28;20116;-73
2023/09/22 09:47:34;;;;;;;6.80;3.40;;;;;;;-144.73;100.00;54463.13;5043380;28;20049;-73
2023/09/22 09:50:04;;;;;;;6.63;3.35;;;;;;;-144.73;100.00;54489.81;5031731;28;20048;-73
2023/09/22 09:52:35;;;;;;;5.53;3.30;;;;;;;-144.73;100.00;54477.47;5042091;28;20092;-73
2023/09/22 09:55:10;;;;;;;9.27;2.75;;;;;;;-144.73;100.00;54498.00;5038843;28;20037;-73
2023/09/22 09:57:40;;;;;;;4.38;2.70;;;;;;;-144.73;100.00;54428.22;5041627;28;20051;-73
2023/09/22 10:00:11;;;;;;;5.30;2.90;;;;;;;-144.73;100.00;54415.91;5030557;28;20107;-73
2023/09/22 10:02:39;;;;;;;6.47;3.05;;;;;;;-144.73;100.00;54502.13;5032866;28;20025;-73
2023/09/22 10:05:07;;;;;;;4.68;2.88;;;;;;;-144.73;100.00;54444.66;5032734;28;20133;-73
2023/09/22 10:07:36;;;;;;;8.48;3.13;;;;;;;-144.73;100.00;54489.81;5031651;28;20194;-73
2023/09/22 10:10:03;;;;;;;7.07;2.97;;;;;;;-144.73;100.00;54459.00;5024976;28;20112;-73
2023/09/22 10:12:30;;;;;;;10.52;2.53;;;;;;;-144.73;100.00;54415.91;5033407;28;20051;-73
2023/09/22 10:15:01;;;;;;;6.88;2.90;;;;;;;-144.73;100.00;54424.13;5037395;28;20036;-73
2023/09/22 10:17:27;;;;;;;4.82;3.35;;;;;;;-144.73;100.00;54461.06;5041035;28;20037;-73
2023/09/22 10:19:53;;;;;;;6.60;2.70;;;;;;;-144.73;100.00;54452.84;5036184;28;20029;-73
2023/09/22 10:22:18;;;;;;;3.53;2.10;;;;;;;-144.73;100.00;54465.16;5037061;28;20055;-73
2023/09/22 10:24:44;;;;;;;6.63;2.60;;;;;;;-144.73;100.00;54481.59;5033292;28;20484;-78
2023/09/22 10:27:14;;;;;;;7.72;2.53;;;;;;;-144.73;100.00;54440.53;5039069;28;20053;-78
2023/09/22 10:29:52;;;;;;;5.50;2.10;;;;;;;-144.73;100.00;54493.91;5027761;28;20041;-79
2023/09/22 10:32:18;;;;;;;6.85;2.50;;;;;;;-144.73;100.00;54456.97;5039484;28;20059;-78
2023/09/22 10:34:53;;;;;;;5.95;1.80;;;;;;;-144.73;100.00;54448.75;5031573;28;20534;-78
2023/09/22 10:37:21;;;;;;;6.40;2.20;;;;;;;-144.73;100.00;54481.59;5032208;28;20097;-78
2023/09/22 10:40:16;;;;;;;4.63;2.90;;;;;;;-144.73;100.00;54438.50;5031511;28;20036;-77
2023/09/22 10:42:58;;;;;;;8.48;2.63;;;;;;;-144.73;100.00;54461.06;5039436;28;20047;-78
2023/09/22 10:45:45;;;;;;;8.15;2.30;;;;;;;-144.73;100.00;54485.69;5026559;28;20438;-78
2023/09/22 10:48:17;;;;;;;7.05;2.17;;;;;;;-144.73;100.00;54493.91;5048169;28;20025;-79
2023/09/22 10:51:15;;;;;;;8.30;2.13;;;;;;;-144.73;100.00;54461.06;5030229;28;20101;-77
2023/09/22 10:54:02;;;;;;;6.38;2.05;;;;;;;-144.73;100.00;54444.66;5019638;28;20088;-78
2023/09/22 10:56:28;;;;;;;7.25;2.17;;;;;;;-144.73;100.00;54436.44;5043567;28;20104;-77
2023/09/22 10:58:53;;;;;;;8.70;1.98;;;;;;;-144.73;100.00;54469.28;5035578;28;20164;-77
2023/09/22 11:01:20;;;;;;;5.97;2.00;;;;;;;-144.73;100.00;54409.75;5032359;28;20021;-77
2023/09/22 11:03:53;;;;;;;8.07;2.00;;;;;;;-144.73;100.00;54481.59;5044156;28;20032;-77
2023/09/22 11:06:19;;;;;;;9.75;2.70;;;;;;;-144.73;100.00;54452.84;5032471;28;20104;-78